createdAt,value
2024-03-10T00:00:02.001Z,97.3
2024-03-10T00:01:42.446Z,97.32
2024-03-10T00:03:22.768Z,97.24
2024-03-10T00:05:03.213Z,97.33
2024-03-10T00:06:43.612Z,97.4
2024-03-10T00:08:24.096Z,97.35
2024-03-10T00:10:04.485Z,97.44
2024-03-10T00:11:44.978Z,97.5
2024-03-10T00:13:25.300Z,97.57
2024-03-10T00:15:05.725Z,97.59
2024-03-10T00:16:46.235Z,97.65
2024-03-10T00:18:26.609Z,97.65
2024-03-10T00:20:07.196Z,97.69
2024-03-10T00:21:47.490Z,97.54
2024-03-10T00:23:27.907Z,97.5
2024-03-10T00:25:08.390Z,97.47
2024-03-10T00:26:48.803Z,97.6
2024-03-10T00:28:29.297Z,97.82
2024-03-10T00:30:09.811Z,97.95
2024-03-10T00:31:50.353Z,98.1
2024-03-10T00:33:30.749Z,98.14
2024-03-10T00:35:11.291Z,98.11
2024-03-10T00:36:51.563Z,98.16
2024-03-10T00:38:32.020Z,98.03
2024-03-10T00:40:12.360Z,97.95
2024-03-10T00:41:52.790Z,98.02
2024-03-10T00:43:33.247Z,97.99
2024-03-10T00:45:13.656Z,98.09
2024-03-10T00:46:54.123Z,98.14
2024-03-10T00:48:34.506Z,98.15
2024-03-10T00:50:14.934Z,98.2
2024-03-10T00:51:55.309Z,98.2
2024-03-10T00:53:35.752Z,98.18
2024-03-10T00:55:16.097Z,98.42
2024-03-10T00:56:56.534Z,98.37
2024-03-10T00:58:36.938Z,98.37
2024-03-10T01:00:17.368Z,98.47
2024-03-10T01:01:57.880Z,98.47
2024-03-10T01:03:38.353Z,98.58
2024-03-10T01:05:18.853Z,98.59
2024-03-10T01:06:59.224Z,98.6
2024-03-10T01:08:39.697Z,98.59
2024-03-10T01:10:20.111Z,98.63
2024-03-10T01:12:00.659Z,98.59
2024-03-10T01:13:41.030Z,98.62
2024-03-10T01:15:21.445Z,98.76
2024-03-10T01:17:01.890Z,98.75
2024-03-10T01:18:42.351Z,98.79
2024-03-10T01:20:22.731Z,98.7
2024-03-10T01:22:03.192Z,98.6
2024-03-10T01:23:43.606Z,98.63
2024-03-10T01:25:24.036Z,98.67
2024-03-10T01:27:04.415Z,98.69
2024-03-10T01:28:44.803Z,98.82
2024-03-10T01:30:25.284Z,98.88
2024-03-10T01:32:05.749Z,98.93
2024-03-10T01:33:46.115Z,99.05
2024-03-10T01:35:26.631Z,99.02
2024-03-10T01:37:06.951Z,99.04
2024-03-10T01:38:47.454Z,98.98
2024-03-10T01:40:27.870Z,98.9
2024-03-10T01:42:08.327Z,99.04
2024-03-10T01:43:49.135Z,99.02
2024-03-10T01:45:29.204Z,98.9
2024-03-10T01:47:09.691Z,98.9
2024-03-10T01:48:50.112Z,98.93
2024-03-10T01:50:30.564Z,99.09
2024-03-10T01:52:10.922Z,99.2
2024-03-10T01:53:51.372Z,99.37
2024-03-10T01:55:31.755Z,99.38
2024-03-10T01:57:12.157Z,99.34
2024-03-10T01:58:52.561Z,99.25
2024-03-10T02:00:33.075Z,99.25
2024-03-10T02:02:13.530Z,99.38
2024-03-10T02:03:53.913Z,99.29
2024-03-10T02:05:34.409Z,99.26
2024-03-10T02:07:14.781Z,99.15
2024-03-10T02:08:55.196Z,99.13
2024-03-10T02:10:35.637Z,99.24
2024-03-10T02:12:16.100Z,99.24
2024-03-10T02:13:56.555Z,99.19
2024-03-10T02:15:36.906Z,99.16
2024-03-10T02:17:17.352Z,99.17
2024-03-10T02:18:57.788Z,99.24
2024-03-10T02:20:38.076Z,99.24
2024-03-10T02:22:18.507Z,99.3
2024-03-10T02:23:58.931Z,99.25
2024-03-10T02:25:39.390Z,99.2
2024-03-10T02:27:19.774Z,99.16
2024-03-10T02:29:00.196Z,99.22
2024-03-10T02:30:40.535Z,99.34
2024-03-10T02:32:21.073Z,99.62
2024-03-10T02:34:01.448Z,99.81
2024-03-10T02:35:41.857Z,99.86
2024-03-10T02:37:22.301Z,99.85
2024-03-10T02:39:02.936Z,99.78
2024-03-10T02:40:43.381Z,99.72
2024-03-10T02:42:23.694Z,99.65
2024-03-10T02:44:04.209Z,99.6
2024-03-10T02:45:44.515Z,99.6
2024-03-10T02:47:25.079Z,99.6
2024-03-10T02:49:05.451Z,99.57
2024-03-10T02:50:45.898Z,99.56
2024-03-10T02:52:26.309Z,99.53
2024-03-10T02:54:06.719Z,99.6
2024-03-10T02:55:47.314Z,99.65
2024-03-10T02:57:27.694Z,99.7
2024-03-10T02:59:08.188Z,99.77
2024-03-10T03:00:48.561Z,99.89
2024-03-10T03:02:29.028Z,100
2024-03-10T03:04:09.400Z,100
2024-03-10T03:05:50.780Z,100
2024-03-10T03:07:30.163Z,99.99
2024-03-10T03:09:10.616Z,100
2024-03-10T03:10:51.042Z,100
2024-03-10T03:14:11.885Z,100
2024-03-10T03:15:52.255Z,99.99
2024-03-10T03:17:32.750Z,99.92
2024-03-10T03:19:13.058Z,99.8
2024-03-10T03:20:53.499Z,99.77
2024-03-10T03:22:34.008Z,99.79
2024-03-10T03:24:14.380Z,99.76
2024-03-10T03:25:54.926Z,99.9
2024-03-10T03:27:35.196Z,99.92
2024-03-10T03:29:15.709Z,99.92
2024-03-10T03:30:56.104Z,99.87
2024-03-10T03:32:36.691Z,99.91
2024-03-10T03:34:17.062Z,99.88
2024-03-10T03:35:57.527Z,99.87
2024-03-10T03:37:37.965Z,99.92
2024-03-10T03:39:18.416Z,99.95
2024-03-10T03:40:58.763Z,99.96
2024-03-10T03:42:39.222Z,99.96
2024-03-10T03:44:19.793Z,99.98
2024-03-10T03:46:00.190Z,100
2024-03-10T03:47:40.760Z,100
2024-03-10T03:49:21.065Z,100
2024-03-10T03:51:01.542Z,100
2024-03-10T03:52:41.864Z,100
2024-03-10T03:54:22.246Z,100
2024-03-10T03:56:02.672Z,100
2024-03-10T03:57:43.075Z,100
2024-03-10T03:59:23.636Z,100
2024-03-10T04:01:03.967Z,100
2024-03-10T04:02:44.360Z,100
2024-03-10T04:04:24.811Z,100
2024-03-10T04:06:05.305Z,100
2024-03-10T04:07:45.801Z,100
2024-03-10T04:09:26.040Z,100
2024-03-10T04:11:06.553Z,100
2024-03-10T04:12:46.869Z,100
2024-03-10T04:14:27.341Z,100
2024-03-10T04:16:07.761Z,100
2024-03-10T04:17:48.333Z,100
2024-03-10T04:19:28.721Z,100
2024-03-10T04:21:09.133Z,100
2024-03-10T04:22:49.787Z,100
2024-03-10T04:24:30.051Z,100
2024-03-10T04:26:10.764Z,100
2024-03-10T04:27:50.936Z,100
2024-03-10T04:29:31.355Z,100
2024-03-10T04:31:11.773Z,100
2024-03-10T04:32:52.258Z,100
2024-03-10T04:34:32.587Z,100
2024-03-10T04:36:13.018Z,100
2024-03-10T04:37:53.475Z,100
2024-03-10T04:39:33.805Z,100
2024-03-10T04:41:14.365Z,100
2024-03-10T04:42:54.661Z,100
2024-03-10T04:44:35.198Z,100
2024-03-10T04:46:15.540Z,100
2024-03-10T04:47:56.078Z,100
2024-03-10T04:49:36.445Z,100
2024-03-10T04:51:16.890Z,100
2024-03-10T04:52:57.286Z,100
2024-03-10T04:54:37.809Z,100
2024-03-10T04:56:18.207Z,100
2024-03-10T04:57:58.557Z,100
2024-03-10T04:59:39.089Z,100
2024-03-10T05:01:19.497Z,100
2024-03-10T05:02:59.942Z,100
2024-03-10T05:04:40.323Z,100
2024-03-10T05:06:20.720Z,100
2024-03-10T05:08:01.185Z,100
2024-03-10T05:09:41.597Z,100
2024-03-10T05:11:22.085Z,100
2024-03-10T05:13:02.523Z,100
2024-03-10T05:14:42.955Z,100
2024-03-10T05:16:23.357Z,100
2024-03-10T05:18:03.789Z,100
2024-03-10T05:19:44.277Z,100
2024-03-10T05:21:24.736Z,100
2024-03-10T05:23:05.189Z,100
2024-03-10T05:24:45.537Z,100
2024-03-10T05:26:26.047Z,100
2024-03-10T05:28:06.425Z,100
2024-03-10T05:29:46.814Z,100
2024-03-10T05:31:27.271Z,100
2024-03-10T05:33:07.693Z,100
2024-03-10T05:34:48.108Z,100
2024-03-10T05:36:28.667Z,100
2024-03-10T05:38:08.963Z,100
2024-03-10T05:39:49.303Z,100
2024-03-10T05:41:29.728Z,100
2024-03-10T05:43:10.092Z,100
2024-03-10T05:44:50.427Z,100
2024-03-10T05:46:30.843Z,100
2024-03-10T05:48:11.333Z,100
2024-03-10T05:49:51.859Z,100
2024-03-10T05:51:32.184Z,100
2024-03-10T05:53:12.670Z,100
2024-03-10T05:54:53.109Z,100
2024-03-10T05:56:33.542Z,100
2024-03-10T05:58:13.922Z,100
2024-03-10T05:59:54.413Z,100
2024-03-10T06:01:34.862Z,100
2024-03-10T06:03:15.279Z,100
2024-03-10T06:04:55.696Z,100
2024-03-10T06:06:36.089Z,100
2024-03-10T06:08:16.572Z,100
2024-03-10T06:09:56.949Z,100
2024-03-10T06:11:37.472Z,100
2024-03-10T06:13:17.882Z,100
2024-03-10T06:14:58.294Z,100
2024-03-10T06:16:38.677Z,100
2024-03-10T06:18:19.170Z,100
2024-03-10T06:19:59.544Z,100
2024-03-10T06:21:40.036Z,100
2024-03-10T06:23:20.476Z,100
2024-03-10T06:25:00.825Z,100
2024-03-10T06:26:44.723Z,100
2024-03-10T06:28:21.768Z,100
2024-03-10T06:30:02.256Z,100
2024-03-10T06:31:42.701Z,100
2024-03-10T06:33:23.212Z,100
2024-03-10T06:35:03.657Z,100
2024-03-10T06:36:44.073Z,100
2024-03-10T06:38:24.567Z,100
2024-03-10T06:40:05.126Z,100
2024-03-10T06:41:45.390Z,100
2024-03-10T06:43:25.870Z,100
2024-03-10T06:45:06.220Z,100
2024-03-10T06:46:46.682Z,100
2024-03-10T06:48:27.184Z,100
2024-03-10T06:50:07.581Z,100
2024-03-10T06:51:47.892Z,100
2024-03-10T06:53:28.374Z,100
2024-03-10T06:55:08.720Z,100
2024-03-10T06:56:49.086Z,100
2024-03-10T06:58:29.563Z,100
2024-03-10T07:00:10.102Z,100
2024-03-10T07:01:50.425Z,100
2024-03-10T07:03:30.881Z,100
2024-03-10T07:05:11.253Z,100
2024-03-10T07:06:51.534Z,100
2024-03-10T07:08:32.050Z,100
2024-03-10T07:10:12.337Z,100
2024-03-10T07:11:52.868Z,100
2024-03-10T07:13:33.161Z,100
2024-03-10T07:15:13.666Z,100
2024-03-10T07:16:54.163Z,100
2024-03-10T07:18:34.628Z,100
2024-03-10T07:20:15.084Z,100
2024-03-10T07:21:55.486Z,100
2024-03-10T07:23:35.960Z,100
2024-03-10T07:25:16.433Z,100
2024-03-10T07:26:56.829Z,100
2024-03-10T07:28:37.665Z,100
2024-03-10T07:30:17.812Z,100
2024-03-10T07:31:58.274Z,100
2024-03-10T07:33:38.577Z,100
2024-03-10T07:35:19.046Z,100
2024-03-10T07:36:59.334Z,100
2024-03-10T07:38:39.736Z,100
2024-03-10T07:40:20.211Z,100
2024-03-10T07:42:00.649Z,100
2024-03-10T07:43:41.046Z,100
2024-03-10T07:45:21.453Z,100
2024-03-10T07:47:01.974Z,100
2024-03-10T07:48:45.780Z,100
2024-03-10T07:50:22.725Z,100
2024-03-10T07:52:03.130Z,99.98
2024-03-10T07:53:43.544Z,99.92
2024-03-10T07:55:24.000Z,99.85
2024-03-10T07:57:04.492Z,99.71
2024-03-10T07:58:44.798Z,99.66
2024-03-10T08:00:25.295Z,99.58
2024-03-10T08:02:05.786Z,99.54
2024-03-10T08:03:46.226Z,99.43
2024-03-10T08:05:26.764Z,99.36
2024-03-10T08:07:07.121Z,99.24
2024-03-10T08:08:47.563Z,99.2
2024-03-10T08:10:28.105Z,99.18
2024-03-10T08:12:08.582Z,99.19
2024-03-10T08:13:48.951Z,99.05
2024-03-10T08:15:29.329Z,98.87
2024-03-10T08:17:09.797Z,98.69
2024-03-10T08:18:51.245Z,98.68
2024-03-10T08:20:30.570Z,98.49
2024-03-10T08:22:10.928Z,98.2
2024-03-10T08:23:51.396Z,98.03
2024-03-10T08:25:31.947Z,97.74
2024-03-10T08:27:12.306Z,97.43
2024-03-10T08:28:52.745Z,97.16
2024-03-10T08:30:33.086Z,96.87
2024-03-10T08:32:13.615Z,96.43
2024-03-10T08:33:53.958Z,96.26
2024-03-10T08:35:34.416Z,96.19
2024-03-10T08:37:14.733Z,95.88
2024-03-10T08:38:55.204Z,95.59
2024-03-10T08:40:35.674Z,95.09
2024-03-10T08:42:16.072Z,95.06
2024-03-10T08:43:56.411Z,94.47
2024-03-10T08:45:36.809Z,94.26
2024-03-10T08:47:17.360Z,94.09
2024-03-10T08:48:57.637Z,93.55
2024-03-10T08:50:38.169Z,93.48
2024-03-10T08:52:18.496Z,92.85
2024-03-10T08:53:58.965Z,92.18
2024-03-10T08:55:39.406Z,91.28
2024-03-10T08:57:19.848Z,89.66
2024-03-10T08:59:00.285Z,87.85
2024-03-10T09:00:40.540Z,86.81
2024-03-10T09:02:21.021Z,85.86
2024-03-10T09:04:01.395Z,85.15
2024-03-10T09:05:41.870Z,84.34
2024-03-10T09:07:22.200Z,84.6
2024-03-10T09:09:02.666Z,82.97
2024-03-10T09:10:52.989Z,82.4
2024-03-10T09:12:23.586Z,81.32
2024-03-10T09:14:04.000Z,80.73
2024-03-10T09:15:44.393Z,79.83
2024-03-10T09:17:24.872Z,80.05
2024-03-10T09:19:05.304Z,80.14
2024-03-10T09:20:45.746Z,79.46
2024-03-10T09:22:26.138Z,79.11
2024-03-10T09:24:06.585Z,78.1
2024-03-10T09:25:46.969Z,77.72
2024-03-10T09:27:27.352Z,77.26
2024-03-10T09:29:07.787Z,77.09
2024-03-10T09:30:48.141Z,77.68
2024-03-10T09:32:28.803Z,77.35
2024-03-10T09:34:08.960Z,76.92
2024-03-10T09:35:49.401Z,76.37
2024-03-10T09:37:29.808Z,76.59
2024-03-10T09:39:10.204Z,77.06
2024-03-10T09:40:50.675Z,76.66
2024-03-10T09:42:31.100Z,76.72
2024-03-10T09:44:11.524Z,77.12
2024-03-10T09:45:51.947Z,76.62
2024-03-10T09:47:32.412Z,76.59
2024-03-10T09:49:12.742Z,76.64
2024-03-10T09:50:53.127Z,76.48
2024-03-10T09:52:33.451Z,75.77
2024-03-10T09:54:13.922Z,74.74
2024-03-10T09:55:54.922Z,74.52
2024-03-10T09:57:34.772Z,74.13
2024-03-10T09:59:15.180Z,73.46
2024-03-10T10:00:55.670Z,72.22
2024-03-10T10:02:36.202Z,72.33
2024-03-10T10:04:16.388Z,71.91
2024-03-10T10:05:56.805Z,70.55
2024-03-10T10:07:37.224Z,69.94
2024-03-10T10:09:17.648Z,68.87
2024-03-10T10:10:58.066Z,68.67
2024-03-10T10:12:38.458Z,67.57
2024-03-10T10:14:19.017Z,67.69
2024-03-10T10:15:59.316Z,66.57
2024-03-10T10:17:39.886Z,65.94
2024-03-10T10:19:20.244Z,64.88
2024-03-10T10:21:00.728Z,65.24
2024-03-10T10:22:41.091Z,62.89
2024-03-10T10:24:21.593Z,62.88
2024-03-10T10:26:02.042Z,63.32
2024-03-10T10:27:42.468Z,62.95
2024-03-10T10:29:22.979Z,63.32
2024-03-10T10:31:03.342Z,64.31
2024-03-10T10:32:43.856Z,63.34
2024-03-10T10:34:24.130Z,63.13
2024-03-10T10:36:04.580Z,63.54
2024-03-10T10:37:45.056Z,63.58
2024-03-10T10:39:25.588Z,64.92
2024-03-10T10:41:06.076Z,65
2024-03-10T10:42:56.715Z,64.16
2024-03-10T10:44:26.954Z,64.02
2024-03-10T10:46:07.299Z,64.15
2024-03-10T10:47:47.779Z,64.3
2024-03-10T10:49:28.189Z,63.88
2024-03-10T10:51:08.621Z,63.48
2024-03-10T10:52:49.035Z,64.43
2024-03-10T10:54:29.396Z,63.04
2024-03-10T10:56:09.803Z,64.22
2024-03-10T10:57:50.246Z,63.87
2024-03-10T10:59:30.756Z,63.18
2024-03-10T11:01:11.218Z,62.32
2024-03-10T11:02:51.574Z,62.51
2024-03-10T11:04:32.040Z,62.7
2024-03-10T11:06:12.504Z,62.42
2024-03-10T11:07:52.899Z,59.86
2024-03-10T11:09:33.324Z,60.14
2024-03-10T11:11:13.848Z,59.43
2024-03-10T11:12:54.149Z,57.75
2024-03-10T11:14:34.698Z,56.08
2024-03-10T11:16:14.948Z,56.64
2024-03-10T11:17:55.657Z,57.33
2024-03-10T11:19:36.004Z,56.61
2024-03-10T11:21:16.446Z,55.03
2024-03-10T11:22:56.936Z,55.54
2024-03-10T11:24:37.295Z,55.67
2024-03-10T11:26:17.872Z,56.33
2024-03-10T11:27:58.106Z,55.02
2024-03-10T11:29:38.601Z,55.48
2024-03-10T11:31:18.923Z,54.67
2024-03-10T11:32:59.373Z,54.88
2024-03-10T11:34:39.784Z,54.15
2024-03-10T11:36:20.202Z,55.36
2024-03-10T11:38:00.950Z,54.74
2024-03-10T11:39:41.070Z,55.17
2024-03-10T11:41:21.580Z,55.05
2024-03-10T11:43:01.932Z,55.74
2024-03-10T11:44:42.362Z,56.83
2024-03-10T11:46:22.721Z,58.23
2024-03-10T11:48:03.463Z,57.8
2024-03-10T11:49:43.501Z,58.92
2024-03-10T11:51:23.990Z,58.04
2024-03-10T11:53:04.394Z,57.64
2024-03-10T11:54:44.875Z,58.84
2024-03-10T11:56:25.312Z,57.4
2024-03-10T11:58:05.797Z,59.49
2024-03-10T11:59:46.148Z,57.59
2024-03-10T12:01:26.757Z,57.59
2024-03-10T12:03:07.051Z,57.12
2024-03-10T12:04:47.546Z,58.22
2024-03-10T12:06:28.608Z,57.86
2024-03-10T12:08:08.450Z,58.17
2024-03-10T12:09:48.802Z,58.18
2024-03-10T12:11:29.290Z,58.67
2024-03-10T12:13:09.624Z,59.34
2024-03-10T12:14:50.034Z,59.22
2024-03-10T12:16:30.412Z,58.97
2024-03-10T12:18:10.869Z,57.88
2024-03-10T12:19:51.229Z,57.8
2024-03-10T12:21:31.701Z,58.95
2024-03-10T12:23:12.182Z,58.73
2024-03-10T12:24:52.470Z,59.75
2024-03-10T12:26:32.921Z,58.46
2024-03-10T12:28:13.315Z,58.88
2024-03-10T12:29:53.738Z,58.94
2024-03-10T12:31:34.201Z,58.69
2024-03-10T12:33:14.640Z,58.56
2024-03-10T12:34:55.120Z,58.82
2024-03-10T12:36:35.540Z,57.42
2024-03-10T12:38:15.935Z,58.49
2024-03-10T12:39:56.390Z,58.56
2024-03-10T12:41:36.846Z,56.69
2024-03-10T12:43:17.238Z,56.46
2024-03-10T12:44:57.662Z,56.45
2024-03-10T12:46:38.090Z,55.77
2024-03-10T12:48:18.451Z,55.9
2024-03-10T12:49:58.928Z,56.48
2024-03-10T12:51:39.272Z,55.01
2024-03-10T12:53:19.724Z,54.27
2024-03-10T12:55:00.183Z,53.8
2024-03-10T12:56:40.635Z,54.67
2024-03-10T12:58:20.941Z,55.22
2024-03-10T13:00:01.330Z,56.59
2024-03-10T13:01:41.796Z,55.98
2024-03-10T13:03:22.209Z,56.83
2024-03-10T13:05:02.680Z,56.8
2024-03-10T13:06:43.053Z,56.98
2024-03-10T13:08:23.535Z,58.08
2024-03-10T13:10:03.871Z,57.37
2024-03-10T13:11:44.298Z,57.22
2024-03-10T13:13:24.832Z,58.3
2024-03-10T13:15:05.224Z,59.35
2024-03-10T13:16:45.564Z,58.79
2024-03-10T13:18:25.976Z,58.64
2024-03-10T13:20:06.426Z,59.19
2024-03-10T13:21:46.858Z,58.86
2024-03-10T13:23:27.370Z,58.89
2024-03-10T13:25:07.776Z,58.7
2024-03-10T13:26:48.201Z,60.04
2024-03-10T13:28:28.616Z,59.54
2024-03-10T13:30:09.062Z,59.74
2024-03-10T13:31:49.484Z,58.95
2024-03-10T13:33:29.997Z,59.12
2024-03-10T13:35:10.429Z,59.06
2024-03-10T13:36:50.682Z,58.89
2024-03-10T13:38:31.179Z,59.53
2024-03-10T13:40:11.485Z,59.39
2024-03-10T13:41:51.886Z,59.61
2024-03-10T13:43:32.310Z,59.49
2024-03-10T13:45:19.585Z,59.35
2024-03-10T13:46:53.466Z,59.28
2024-03-10T13:48:33.661Z,59.17
2024-03-10T13:50:13.984Z,59.72
2024-03-10T13:51:54.413Z,59.69
2024-03-10T13:53:34.788Z,60.07
2024-03-10T13:55:15.217Z,60.37
2024-03-10T13:56:55.627Z,60.3
2024-03-10T13:58:36.026Z,61.17
2024-03-10T14:00:16.641Z,61.64
2024-03-10T14:01:56.994Z,61.7
2024-03-10T14:03:37.599Z,60.92
2024-03-10T14:05:17.804Z,61.85
2024-03-10T14:06:58.138Z,61.69
2024-03-10T14:08:38.640Z,60.79
2024-03-10T14:10:19.254Z,61.81
2024-03-10T14:11:59.438Z,62.75
2024-03-10T14:13:39.834Z,63.27
2024-03-10T14:15:20.299Z,63.15
2024-03-10T14:17:00.721Z,62.89
2024-03-10T14:18:41.137Z,62.31
2024-03-10T14:20:21.590Z,62.24
2024-03-10T14:22:02.023Z,62.91
2024-03-10T14:23:42.403Z,63.11
2024-03-10T14:25:22.777Z,62.61
2024-03-10T14:27:03.205Z,63.01
2024-03-10T14:28:43.609Z,64.18
2024-03-10T14:30:24.062Z,64.32
2024-03-10T14:32:04.445Z,64.83
2024-03-10T14:33:44.853Z,64.67
2024-03-10T14:35:26.362Z,64.84
2024-03-10T14:37:05.664Z,65.27
2024-03-10T14:38:46.191Z,66.43
2024-03-10T14:40:26.480Z,66.22
2024-03-10T14:42:06.903Z,64.88
2024-03-10T14:43:47.274Z,65.11
2024-03-10T14:45:27.744Z,65.79
2024-03-10T14:47:08.074Z,66.15
2024-03-10T14:48:48.488Z,66.45
2024-03-10T14:50:28.984Z,66.57
2024-03-10T14:52:09.362Z,66.32
2024-03-10T14:53:49.848Z,66.14
2024-03-10T14:55:30.198Z,66.39
2024-03-10T14:57:10.623Z,66.49
2024-03-10T14:58:51.005Z,67.64
2024-03-10T15:00:31.394Z,68.07
2024-03-10T15:02:11.865Z,66.82
2024-03-10T15:03:52.200Z,67.48
2024-03-10T15:05:32.658Z,67.47
2024-03-10T15:07:13.016Z,68.51
2024-03-10T15:08:53.424Z,67.25
2024-03-10T15:10:33.863Z,67.36
2024-03-10T15:12:14.469Z,68.2
2024-03-10T15:13:54.790Z,67.97
2024-03-10T15:15:35.148Z,68.37
2024-03-10T15:17:15.593Z,68.46
2024-03-10T15:18:55.924Z,69.03
2024-03-10T15:20:36.351Z,68.97
2024-03-10T15:22:16.765Z,69.06
2024-03-10T15:23:57.164Z,69.72
2024-03-10T15:25:37.654Z,69.44
2024-03-10T15:27:18.057Z,70.23
2024-03-10T15:28:58.523Z,69.88
2024-03-10T15:30:38.891Z,69.48
2024-03-10T15:32:19.586Z,69.85
2024-03-10T15:33:59.795Z,69.88
2024-03-10T15:35:40.505Z,69.91
2024-03-10T15:37:20.679Z,70.66
2024-03-10T15:39:01.136Z,70.93
2024-03-10T15:40:41.548Z,71.09
2024-03-10T15:42:21.973Z,71.13
2024-03-10T15:44:02.441Z,70.94
2024-03-10T15:45:42.806Z,71.32
2024-03-10T15:47:23.237Z,71.6
2024-03-10T15:49:03.570Z,71.95
2024-03-10T15:50:44.514Z,72.24
2024-03-10T15:52:24.329Z,72.32
2024-03-10T15:54:04.745Z,72.23
2024-03-10T15:55:45.083Z,72.7
2024-03-10T15:57:25.497Z,73.24
2024-03-10T15:59:05.969Z,73.13
2024-03-10T16:00:46.331Z,73.42
2024-03-10T16:02:26.879Z,73.81
2024-03-10T16:04:07.361Z,74.12
2024-03-10T16:05:47.824Z,74.06
2024-03-10T16:07:28.243Z,74.69
2024-03-10T16:09:08.692Z,74.7
2024-03-10T16:10:49.197Z,74.84
2024-03-10T16:12:29.533Z,75.23
2024-03-10T16:14:09.960Z,75.19
2024-03-10T16:15:50.328Z,75.51
2024-03-10T16:17:30.828Z,76.05
2024-03-10T16:19:11.208Z,76.38
2024-03-10T16:20:51.644Z,77.01
2024-03-10T16:22:31.990Z,77.3
2024-03-10T16:24:12.414Z,77.69
2024-03-10T16:25:52.853Z,77.64
2024-03-10T16:27:33.220Z,77.87
2024-03-10T16:29:13.706Z,78.46
2024-03-10T16:30:54.060Z,78.24
2024-03-10T16:32:34.579Z,78.18
2024-03-10T16:34:14.966Z,78.36
2024-03-10T16:35:55.368Z,78.63
2024-03-10T16:37:35.750Z,78.72
2024-03-10T16:39:16.192Z,79.09
2024-03-10T16:40:56.748Z,79.28
2024-03-10T16:42:37.058Z,79.15
2024-03-10T16:44:17.515Z,78.73
2024-03-10T16:45:57.893Z,78.7
2024-03-10T16:47:38.479Z,78.27
2024-03-10T16:49:18.820Z,77.73
2024-03-10T16:50:59.184Z,77.56
2024-03-10T16:52:39.608Z,77.69
2024-03-10T16:54:19.949Z,77.5
2024-03-10T16:56:00.426Z,77.08
2024-03-10T16:57:40.809Z,77.46
2024-03-10T16:59:21.188Z,77.53
2024-03-10T17:01:01.526Z,77.43
2024-03-10T17:02:44.315Z,77.51
2024-03-10T17:04:22.327Z,77.57
2024-03-10T17:06:02.766Z,77.47
2024-03-10T17:07:43.249Z,77.51
2024-03-10T17:09:23.682Z,76.96
2024-03-10T17:11:04.127Z,77.08
2024-03-10T17:12:44.495Z,77.07
2024-03-10T17:14:24.972Z,77.17
2024-03-10T17:16:05.358Z,77.17
2024-03-10T17:17:46.088Z,77.37
2024-03-10T17:19:26.815Z,77.35
2024-03-10T17:21:06.521Z,77.12
2024-03-10T17:22:46.930Z,76.6
2024-03-10T17:24:27.471Z,76.51
2024-03-10T17:26:07.902Z,76.42
2024-03-10T17:27:48.341Z,76.52
2024-03-10T17:29:28.902Z,76.35
2024-03-10T17:31:09.110Z,76.25
2024-03-10T17:32:52.580Z,76.35
2024-03-10T17:34:29.938Z,76.25
2024-03-10T17:36:10.351Z,76.19
2024-03-10T17:37:50.760Z,76.34
2024-03-10T17:39:31.199Z,76.09
2024-03-10T17:41:11.627Z,76.34
2024-03-10T17:42:52.083Z,76.39
2024-03-10T17:44:32.588Z,76.8
2024-03-10T17:46:12.992Z,76.83
2024-03-10T17:47:53.646Z,77.15
2024-03-10T17:49:33.826Z,77.11
2024-03-10T17:51:14.274Z,77.56
2024-03-10T17:52:54.685Z,77.66
2024-03-10T17:54:35.129Z,77.72
2024-03-10T17:56:15.592Z,78.2
2024-03-10T17:57:55.909Z,78.02
2024-03-10T17:59:36.436Z,77.88
2024-03-10T18:01:16.760Z,78.2
2024-03-10T18:02:57.142Z,78.37
2024-03-10T18:04:37.579Z,78.38
2024-03-10T18:06:18.280Z,78.57
2024-03-10T18:07:58.517Z,78.18
2024-03-10T18:09:38.798Z,78.53
2024-03-10T18:11:19.258Z,78.4
2024-03-10T18:12:59.683Z,78.65
2024-03-10T18:14:40.218Z,78.96
2024-03-10T18:16:20.510Z,79.09
2024-03-10T18:18:01.264Z,79.57
2024-03-10T18:19:41.390Z,80.07
2024-03-10T18:21:21.810Z,80.39
2024-03-10T18:23:02.317Z,80.49
2024-03-10T18:24:42.717Z,80.79
2024-03-10T18:26:23.094Z,80.76
2024-03-10T18:28:03.538Z,80.73
2024-03-10T18:29:44.066Z,80.51
2024-03-10T18:31:24.370Z,80.24
2024-03-10T18:33:05.019Z,80.2
2024-03-10T18:34:46.868Z,80.21
2024-03-10T18:36:25.608Z,80.36
2024-03-10T18:38:06.118Z,80.7
2024-03-10T18:39:46.500Z,80.76
2024-03-10T18:41:26.934Z,80.74
2024-03-10T18:43:07.416Z,80.97
2024-03-10T18:44:47.922Z,81.28
2024-03-10T18:46:28.260Z,80.91
2024-03-10T18:48:08.790Z,80.77
2024-03-10T18:49:49.114Z,80.7
2024-03-10T18:51:29.887Z,80.75
2024-03-10T18:53:10.044Z,81.11
2024-03-10T18:54:50.450Z,81.09
2024-03-10T18:56:30.863Z,80.98
2024-03-10T18:58:11.204Z,80.53
2024-03-10T18:59:51.646Z,80.07
2024-03-10T19:01:32.107Z,80.07
2024-03-10T19:03:12.506Z,80.13
2024-03-10T19:04:52.906Z,80.22
2024-03-10T19:06:33.292Z,80.47
2024-03-10T19:08:13.798Z,80.6
2024-03-10T19:09:54.301Z,80.6
2024-03-10T19:11:34.801Z,80.53
2024-03-10T19:13:15.108Z,80.6
2024-03-10T19:14:55.476Z,80.84
2024-03-10T19:16:35.908Z,80.82
2024-03-10T19:18:16.327Z,80.84
2024-03-10T19:19:56.753Z,80.92
2024-03-10T19:21:37.145Z,81.34
2024-03-10T19:23:17.639Z,81.26
2024-03-10T19:24:57.970Z,81.34
2024-03-10T19:26:38.453Z,81.45
2024-03-10T19:28:18.760Z,81.77
2024-03-10T19:29:59.279Z,81.73
2024-03-10T19:31:39.741Z,81.95
2024-03-10T19:33:20.260Z,81.91
2024-03-10T19:35:00.723Z,82.22
2024-03-10T19:36:41.104Z,82.59
2024-03-10T19:38:21.599Z,82.59
2024-03-10T19:40:01.961Z,82.75
2024-03-10T19:41:42.397Z,82.82
2024-03-10T19:43:22.840Z,83.3
2024-03-10T19:45:03.291Z,83.5
2024-03-10T19:46:43.559Z,83.75
2024-03-10T19:48:24.498Z,83.95
2024-03-10T19:50:04.383Z,83.95
2024-03-10T19:51:44.698Z,84.13
2024-03-10T19:53:25.230Z,84.35
2024-03-10T19:55:05.502Z,84.35
2024-03-10T19:56:45.930Z,84.75
2024-03-10T19:58:26.326Z,84.95
2024-03-10T20:00:06.719Z,84.75
2024-03-10T20:01:47.113Z,84.97
2024-03-10T20:03:27.489Z,85.49
2024-03-10T20:05:07.973Z,85.76
2024-03-10T20:06:48.443Z,85.75
2024-03-10T20:08:28.877Z,85.78
2024-03-10T20:10:09.208Z,86
2024-03-10T20:11:49.872Z,86.15
2024-03-10T20:13:30.151Z,86.18
2024-03-10T20:15:10.542Z,86.59
2024-03-10T20:16:50.950Z,86.44
2024-03-10T20:18:31.361Z,86.65
2024-03-10T20:20:11.753Z,86.78
2024-03-10T20:21:52.131Z,86.67
2024-03-10T20:23:32.553Z,86.59
2024-03-10T20:25:12.954Z,86.94
2024-03-10T20:26:53.595Z,86.9
2024-03-10T20:28:33.778Z,87.09
2024-03-10T20:30:14.221Z,87.27
2024-03-10T20:31:54.719Z,87.38
2024-03-10T20:33:35.205Z,87.22
2024-03-10T20:35:15.780Z,87.43
2024-03-10T20:36:55.974Z,87.56
2024-03-10T20:38:36.444Z,87.72
2024-03-10T20:40:17.017Z,87.96
2024-03-10T20:41:57.176Z,88.16
2024-03-10T20:43:37.945Z,88.14
2024-03-10T20:45:18.047Z,88.1
2024-03-10T20:46:58.414Z,88.36
2024-03-10T20:48:38.829Z,88.38
2024-03-10T20:50:19.291Z,88.61
2024-03-10T20:51:59.744Z,88.65
2024-03-10T20:53:40.214Z,88.55
2024-03-10T20:55:20.618Z,88.48
2024-03-10T20:57:01.093Z,89
2024-03-10T20:58:41.508Z,89.03
2024-03-10T21:00:21.963Z,89.34
2024-03-10T21:02:02.498Z,89.3
2024-03-10T21:03:42.953Z,89.16
2024-03-10T21:05:23.682Z,89.26
2024-03-10T21:07:03.774Z,89.34
2024-03-10T21:08:44.187Z,89.33
2024-03-10T21:10:24.514Z,89.35
2024-03-10T21:12:04.967Z,89.28
2024-03-10T21:13:45.277Z,89.35
2024-03-10T21:15:25.598Z,89.34
2024-03-10T21:17:06.076Z,89.39
2024-03-10T21:18:46.479Z,89.58
2024-03-10T21:20:27.036Z,89.63
2024-03-10T21:22:07.255Z,89.76
2024-03-10T21:23:47.767Z,89.88
2024-03-10T21:25:28.095Z,90.25
2024-03-10T21:27:08.473Z,90.23
2024-03-10T21:28:48.922Z,90.21
2024-03-10T21:30:29.371Z,89.98
2024-03-10T21:32:09.917Z,90.03
2024-03-10T21:33:50.197Z,90.34
2024-03-10T21:35:30.689Z,90.33
2024-03-10T21:37:11.087Z,90.3
2024-03-10T21:38:51.739Z,90.35
2024-03-10T21:40:31.950Z,90.1
2024-03-10T21:42:12.290Z,89.97
2024-03-10T21:43:52.705Z,90.04
2024-03-10T21:45:33.077Z,90.01
2024-03-10T21:47:13.658Z,90.03
2024-03-10T21:48:53.903Z,90.15
2024-03-10T21:50:34.366Z,90.28
2024-03-10T21:52:14.751Z,90.39
2024-03-10T21:53:55.151Z,90.39